Time;durP1;ratioP1;P1;durP2;ratioP2;P2;SDS_P1;SDS_P2;PMS_P1;PMS_P2;Temp;Humidity;BMP_temperature;BMP_pressure;BME280_temperature;BME280_humidity;BME280_pressure;Samples;Min_cycle;Max_cycle;Signal;HPM_P1;HPM_P2
2024/04/11 00:01:20;;;;;;;7.32;2.28;;;;;;;12.46;74.69;102774.72;5492662;25;20005;-69
2024/04/11 00:04:08;;;;;;;5.50;2.20;;;;;;;12.50;75.63;102784.16;5460103;26;20037;-69
2024/04/11 00:06:57;;;;;;;7.55;2.80;;;;;;;12.47;74.66;102785.44;5490721;26;20002;-68
2024/04/11 00:09:45;;;;;;;5.38;2.08;;;;;;;12.48;75.05;102783.53;5485556;26;20038;-69
2024/04/11 00:12:34;;;;;;;8.13;2.53;;;;;;;12.49;75.14;102782.50;5498493;26;20013;-69
2024/04/11 00:15:22;;;;;;;8.15;2.55;;;;;;;12.51;75.04;102774.91;5522459;26;20037;-69
2024/04/11 00:18:10;;;;;;;7.07;2.47;;;;;;;12.50;75.20;102768.56;5469146;26;20009;-69
2024/04/11 00:20:58;;;;;;;8.95;2.53;;;;;;;12.54;76.49;102768.94;5462040;26;20114;-69
2024/04/11 00:23:47;;;;;;;7.50;2.47;;;;;;;12.54;76.28;102764.31;5462065;26;20023;-69
2024/04/11 00:26:36;;;;;;;7.57;2.28;;;;;;;12.51;75.79;102758.50;5462225;26;20009;-68
2024/04/11 00:29:24;;;;;;;5.90;1.90;;;;;;;12.54;76.47;102758.00;5511684;25;20405;-70
2024/04/11 00:32:12;;;;;;;7.57;2.20;;;;;;;12.53;76.50;102759.06;5525807;26;20013;-69
2024/04/11 00:35:04;;;;;;;7.25;2.33;;;;;;;12.50;75.55;102743.13;5497582;26;20005;-70
2024/04/11 00:37:53;;;;;;;7.63;2.20;;;;;;;12.52;75.90;102741.81;5499021;26;19998;-69
2024/04/11 00:40:41;;;;;;;8.25;2.30;;;;;;;12.52;75.36;102744.56;5497008;26;20001;-69
2024/04/11 00:43:30;;;;;;;9.38;2.25;;;;;;;12.52;75.58;102739.09;5471201;26;20002;-69
2024/04/11 00:46:18;;;;;;;7.55;2.30;;;;;;;12.53;76.21;102742.66;5471185;26;20369;-68
2024/04/11 00:49:07;;;;;;;8.75;2.38;;;;;;;12.52;75.43;102744.56;5497164;25;20021;-69
2024/04/11 00:51:57;;;;;;;8.77;2.67;;;;;;;12.53;75.36;102756.31;5487367;26;20410;-69
2024/04/11 00:54:46;;;;;;;6.68;2.55;;;;;;;12.53;75.09;102761.78;5463117;26;20367;-69
2024/04/11 00:57:35;;;;;;;8.68;2.28;;;;;;;12.55;76.04;102756.94;5462009;26;20016;-68
2024/04/11 01:00:25;;;;;;;10.57;3.03;;;;;;;12.56;75.86;102762.19;5529534;25;19997;-68
2024/04/11 01:03:15;;;;;;;7.43;2.42;;;;;;;12.53;74.30;102764.53;5532629;25;20000;-69
2024/04/11 01:06:05;;;;;;;7.68;2.35;;;;;;;12.53;74.87;102778.19;5534369;25;20007;-69
2024/04/11 01:08:53;;;;;;;9.77;2.53;;;;;;;12.55;74.69;102768.72;5561569;25;20072;-69
2024/04/11 01:11:41;;;;;;;6.30;2.30;;;;;;;12.53;74.56;102768.13;5526676;25;20432;-67
2024/04/11 01:14:31;;;;;;;7.88;2.30;;;;;;;12.53;74.49;102767.25;5533017;25;20007;-70
2024/04/11 01:17:21;;;;;;;9.75;2.55;;;;;;;12.52;74.38;102782.03;5460505;25;20025;-69
2024/04/11 01:20:11;;;;;;;7.45;2.80;;;;;;;12.51;73.73;102769.44;5531443;25;20008;-69
2024/04/11 01:22:59;;;;;;;8.90;2.42;;;;;;;12.51;73.30;102774.91;5512137;25;20459;-70
2024/04/11 01:25:48;;;;;;;10.52;2.28;;;;;;;12.52;73.72;102768.34;5559483;25;19997;-69
2024/04/11 01:28:36;;;;;;;8.63;2.67;;;;;;;12.53;74.21;102757.19;5531927;25;20075;-69
2024/04/11 01:31:25;;;;;;;6.65;2.15;;;;;;;12.55;74.76;102765.13;5555802;25;20016;-69
2024/04/11 01:34:13;;;;;;;12.75;2.40;;;;;;;12.55;74.19;102756.94;5494545;26;20020;-68
2024/04/11 01:37:02;;;;;;;9.23;2.30;;;;;;;12.56;74.42;102740.31;5473355;26;20479;-68
2024/04/11 01:39:50;;;;;;;6.78;2.35;;;;;;;12.52;73.95;102728.16;5499202;26;20001;-69
2024/04/11 01:42:38;;;;;;;7.63;2.50;;;;;;;12.53;74.52;102731.72;5532239;25;20016;-69
2024/04/11 01:45:26;;;;;;;9.27;2.25;;;;;;;12.54;75.12;102733.41;5557792;25;20011;-68
2024/04/11 01:48:14;;;;;;;10.18;2.50;;;;;;;12.56;75.65;102739.47;5532106;25;20015;-68
2024/04/11 01:51:03;;;;;;;10.60;2.72;;;;;;;12.55;74.63;102740.53;5560412;25;20001;-68
2024/04/11 01:53:51;;;;;;;6.40;2.38;;;;;;;12.56;75.86;102723.91;5503675;25;20012;-68
2024/04/11 01:56:39;;;;;;;7.70;2.40;;;;;;;12.53;74.77;102738.03;5508842;25;19997;-68
2024/04/11 01:59:27;;;;;;;8.65;2.08;;;;;;;12.54;76.24;102731.50;5560462;25;20068;-69
2024/04/11 02:02:16;;;;;;;6.78;2.38;;;;;;;12.57;75.91;102730.19;5557901;25;20005;-68
2024/04/11 02:05:04;;;;;;;7.68;2.30;;;;;;;12.53;75.09;102727.09;5520266;25;19998;-69
2024/04/11 02:07:52;;;;;;;8.30;2.20;;;;;;;12.54;75.83;102741.59;5522103;26;20010;-68
2024/04/11 02:10:40;;;;;;;5.70;1.98;;;;;;;12.56;75.92;102747.69;5495640;26;20042;-68
2024/04/11 02:13:29;;;;;;;7.65;2.35;;;;;;;12.55;76.30;102738.66;5516638;26;20009;-69
2024/04/11 02:16:18;;;;;;;8.05;2.40;;;;;;;12.53;75.76;102732.56;5483045;26;20071;-68
2024/04/11 02:19:07;;;;;;;7.63;2.25;;;;;;;12.54;76.17;102727.94;5519724;26;20340;-69
2024/04/11 02:21:55;;;;;;;8.20;2.60;;;;;;;12.54;76.95;102720.56;5522685;25;20111;-69
2024/04/11 02:24:44;;;;;;;5.80;2.17;;;;;;;12.54;76.21;102719.72;5522022;26;20001;-68
2024/04/11 02:27:32;;;;;;;8.25;2.85;;;;;;;12.54;75.66;102725.19;5522631;26;20009;-68
2024/04/11 02:30:20;;;;;;;8.27;2.45;;;;;;;12.54;76.48;102725.19;5489026;26;20004;-68
2024/04/11 02:33:10;;;;;;;10.85;2.97;;;;;;;12.54;76.46;102725.19;5487746;26;20009;-68
2024/04/11 02:35:59;;;;;;;9.90;2.55;;;;;;;12.53;76.72;102737.19;5486049;26;20005;-69
2024/04/11 02:38:47;;;;;;;12.45;3.08;;;;;;;12.51;75.24;102742.09;5495121;25;20004;-67
2024/04/11 02:41:37;;;;;;;5.60;2.38;;;;;;;12.52;76.99;102727.34;5521495;26;19997;-68
2024/04/11 02:44:25;;;;;;;9.25;2.70;;;;;;;12.50;76.02;102732.19;5497187;26;20001;-70
2024/04/11 02:47:15;;;;;;;7.43;2.40;;;;;;;12.49;76.00;102734.09;5517192;25;20010;-68
2024/04/11 02:50:04;;;;;;;9.10;2.55;;;;;;;12.46;75.24;102733.72;5508189;25;20044;-68
2024/04/11 02:52:52;;;;;;;8.60;2.55;;;;;;;12.48;75.34;102745.25;5486021;25;20013;-68
2024/04/11 02:55:40;;;;;;;7.13;2.60;;;;;;;12.45;75.18;102740.28;5520076;26;19998;-68
2024/04/11 02:58:29;;;;;;;9.63;2.80;;;;;;;12.44;75.62;102742.19;5494983;26;20042;-68
2024/04/11 03:01:17;;;;;;;9.82;2.80;;;;;;;12.44;74.95;102733.97;5517410;26;20035;-68
2024/04/11 03:04:05;;;;;;;10.88;2.75;;;;;;;12.44;75.67;102741.34;5519922;26;20001;-69
2024/04/11 03:06:54;;;;;;;7.95;2.35;;;;;;;12.44;75.68;102731.25;5522739;26;20009;-68
2024/04/11 03:09:42;;;;;;;6.03;2.45;;;;;;;12.45;75.94;102732.91;5475051;26;20046;-68
2024/04/11 03:12:30;;;;;;;6.85;2.35;;;;;;;12.47;76.50;102724.47;5496853;26;20001;-68
2024/04/11 03:15:19;;;;;;;9.50;2.53;;;;;;;12.44;76.29;102731.25;5524474;26;20328;-68
2024/04/11 03:18:07;;;;;;;7.72;2.88;;;;;;;12.45;75.90;102743.81;5524391;26;20050;-69
2024/04/11 03:20:58;;;;;;;11.07;2.83;;;;;;;12.48;77.08;102731.59;5495448;26;20513;-69
2024/04/11 03:23:53;;;;;;;9.10;2.65;;;;;;;12.45;76.81;102726.59;5463414;26;20367;-69
2024/04/11 03:26:41;;;;;;;6.53;2.17;;;;;;;12.47;77.53;102730.75;5496835;26;20005;-68
2024/04/11 03:29:30;;;;;;;6.78;2.63;;;;;;;12.47;79.14;102725.28;5471828;26;20405;-69
2024/04/11 03:32:18;;;;;;;8.05;2.63;;;;;;;12.47;77.67;102732.66;5463075;26;19999;-68
2024/04/11 03:35:08;;;;;;;10.15;2.97;;;;;;;12.45;77.58;102721.13;5486637;26;20573;-69
2024/04/11 03:37:56;;;;;;;9.40;2.97;;;;;;;12.44;77.67;102722.22;5464086;26;20002;-70
2024/04/11 03:40:58;;;;;;;6.78;2.28;;;;;;;12.44;77.67;102724.94;5519465;26;20002;-67
2024/04/11 03:43:54;;;;;;;8.15;2.70;;;;;;;12.43;77.51;102723.25;5461199;26;19998;-68
2024/04/11 03:46:43;;;;;;;9.52;2.38;;;;;;;12.43;77.59;102731.47;5490890;26;20008;-69
2024/04/11 03:49:33;;;;;;;8.70;2.60;;;;;;;12.42;77.54;102727.06;5498266;26;20012;-69
2024/04/11 03:52:21;;;;;;;8.18;2.72;;;;;;;12.43;78.40;102715.88;5524431;25;20012;-69
2024/04/11 03:55:09;;;;;;;9.95;2.80;;;;;;;12.43;78.23;102712.31;5496671;26;20017;-69
2024/04/11 03:57:58;;;;;;;5.47;2.25;;;;;;;12.44;78.63;102703.06;5523832;26;20045;-69
2024/04/11 04:00:46;;;;;;;8.48;2.85;;;;;;;12.42;78.48;102702.47;5532463;25;20072;-69
2024/04/11 04:03:35;;;;;;;7.38;2.60;;;;;;;12.40;78.42;102697.22;5536838;25;20012;-69
2024/04/11 04:06:23;;;;;;;6.57;2.20;;;;;;;12.42;78.57;102702.47;5524783;25;20001;-69
2024/04/11 04:09:11;;;;;;;8.32;2.47;;;;;;;12.39;78.93;102706.50;5510319;25;20325;-69
2024/04/11 04:11:59;;;;;;;9.25;2.40;;;;;;;12.39;78.89;102708.38;5561575;25;20001;-69
2024/04/11 04:14:48;;;;;;;7.85;2.50;;;;;;;12.36;79.05;102705.06;5523476;25;20025;-69
2024/04/11 04:17:36;;;;;;;9.25;2.40;;;;;;;12.38;79.52;102701.25;5533434;25;20452;-69
2024/04/11 04:20:25;;;;;;;7.72;2.65;;;;;;;12.36;79.17;102690.56;5562097;25;20008;-68
2024/04/11 04:23:13;;;;;;;6.20;2.28;;;;;;;12.40;80.41;102682.72;5510781;25;20458;-69
2024/04/11 04:26:04;;;;;;;7.80;3.08;;;;;;;12.36;80.07;102680.47;5527684;25;20448;-69
2024/04/11 04:28:53;;;;;;;8.68;2.60;;;;;;;12.39;80.64;102683.78;5485759;25;20337;-68
2024/04/11 04:31:42;;;;;;;7.22;2.25;;;;;;;12.39;81.54;102689.25;5513000;25;20000;-69
2024/04/11 04:34:33;;;;;;;6.30;2.20;;;;;;;12.36;80.97;102696.03;5485253;25;20083;-69
2024/04/11 04:37:21;;;;;;;7.05;2.50;;;;;;;12.36;81.28;102682.34;5545972;25;20076;-68
2024/04/11 04:40:10;;;;;;;9.63;2.80;;;;;;;12.36;81.34;102685.09;5559750;25;20011;-68
2024/04/11 04:42:58;;;;;;;10.48;2.60;;;;;;;12.34;81.47;102681.78;5508783;25;20470;-69
2024/04/11 04:45:49;;;;;;;7.32;2.63;;;;;;;12.36;81.61;102685.09;5559897;25;20003;-69
2024/04/11 04:48:37;;;;;;;10.35;2.42;;;;;;;12.33;82.17;102678.19;5481069;25;20000;-68
2024/04/11 04:51:26;;;;;;;9.73;2.40;;;;;;;12.34;83.68;102687.25;5471224;26;20012;-68
2024/04/11 04:54:16;;;;;;;9.38;2.40;;;;;;;12.30;82.81;102681.41;5498070;26;20330;-68
2024/04/11 04:57:06;;;;;;;8.45;2.42;;;;;;;12.30;83.26;102681.41;5534458;25;20397;-68
2024/04/11 04:59:54;;;;;;;9.23;2.83;;;;;;;12.31;83.58;102682.22;5471362;26;20025;-68
2024/04/11 05:02:42;;;;;;;8.48;2.45;;;;;;;12.29;83.20;102674.28;5496958;26;20008;-67
2024/04/11 05:05:31;;;;;;;12.15;3.20;;;;;;;12.26;83.85;102672.00;5470880;26;20025;-68
2024/04/11 05:08:23;;;;;;;8.85;2.70;;;;;;;12.24;83.79;102676.88;5493449;26;20338;-68
2024/04/11 05:11:16;;;;;;;13.95;3.20;;;;;;;12.21;84.56;102677.31;5469464;26;20013;-68
2024/04/11 05:14:07;;;;;;;8.48;2.50;;;;;;;12.24;84.77;102686.97;5486747;26;20001;-68
2024/04/11 05:16:58;;;;;;;6.72;2.45;;;;;;;12.27;84.89;102690.06;5472331;26;20116;-69
2024/04/11 05:19:47;;;;;;;9.23;2.67;;;;;;;12.30;84.97;102691.50;5520194;26;20013;-68
2024/04/11 05:22:36;;;;;;;5.68;2.20;;;;;;;12.29;85.58;102700.75;5498898;26;20016;-69
2024/04/11 05:25:24;;;;;;;8.50;2.63;;;;;;;12.27;85.80;102703.75;5475901;26;20329;-68
2024/04/11 05:28:14;;;;;;;8.98;2.97;;;;;;;12.28;86.48;102699.94;5504662;26;20016;-69
2024/04/11 05:31:06;;;;;;;6.00;2.38;;;;;;;12.29;86.88;102715.28;5519309;25;20037;-69
2024/04/11 05:33:59;;;;;;;7.95;2.47;;;;;;;12.28;87.44;102719.06;5416265;26;20005;-70
2024/04/11 05:36:49;;;;;;;10.40;3.00;;;;;;;12.31;88.61;102726.81;5511972;26;20012;-69
2024/04/11 05:39:49;;;;;;;10.13;2.78;;;;;;;12.36;89.62;102729.69;5534774;25;20067;-69
2024/04/11 05:42:44;;;;;;;8.98;2.63;;;;;;;12.26;89.25;102736.75;5494818;26;20002;-69
2024/04/11 05:45:33;;;;;;;13.02;3.25;;;;;;;12.18;90.60;102735.19;5522061;26;20080;-69
2024/04/11 05:48:22;;;;;;;14.00;2.92;;;;;;;12.17;91.08;102735.41;4735682;25;10022497;-68
2024/04/11 05:51:11;;;;;;;9.52;2.97;;;;;;;12.16;91.58;102745.50;5476299;26;20037;-69
2024/04/11 05:53:59;;;;;;;10.68;3.20;;;;;;;12.15;91.83;102755.63;5462558;26;20012;-68
2024/04/11 05:56:47;;;;;;;8.70;2.80;;;;;;;12.25;91.45;102752.34;5443659;26;20017;-69
2024/04/11 05:59:36;;;;;;;8.20;2.67;;;;;;;12.30;91.01;102757.94;5507470;25;19993;-69
2024/04/11 06:02:24;;;;;;;11.77;2.97;;;;;;;12.32;91.38;102758.53;5508304;25;20079;-69
2024/04/11 06:05:14;;;;;;;9.00;2.83;;;;;;;12.33;91.46;102768.38;5431048;26;20476;-69
2024/04/11 06:08:02;;;;;;;10.88;2.80;;;;;;;12.35;91.55;102765.44;5436587;26;20005;-68
2024/04/11 06:10:50;;;;;;;9.00;2.90;;;;;;;12.34;92.35;102775.53;5514824;26;20033;-70
2024/04/11 06:13:39;;;;;;;12.73;3.17;;;;;;;12.29;93.00;102771.81;5518161;26;20054;-70
2024/04/11 06:16:27;;;;;;;12.02;3.53;;;;;;;12.25;93.38;102770.63;5465608;26;20104;-70
2024/04/11 06:19:15;;;;;;;8.00;2.92;;;;;;;12.25;94.35;102779.66;5516552;26;20459;-68
2024/04/11 06:22:06;;;;;;;11.57;3.22;;;;;;;12.25;96.23;102776.09;5546531;25;20335;-70
2024/04/11 06:24:55;;;;;;;9.60;2.88;;;;;;;12.30;96.21;102785.25;5528197;25;20455;-70
2024/04/11 06:27:44;;;;;;;8.60;2.85;;;;;;;12.35;97.04;102777.19;5553439;25;20005;-69
2024/04/11 06:30:38;;;;;;;10.20;2.55;;;;;;;12.35;98.36;102782.66;5549542;25;20015;-69
2024/04/11 06:33:26;;;;;;;9.18;2.65;;;;;;;12.34;99.56;102783.75;5479928;26;20078;-67
2024/04/11 06:36:17;;;;;;;5.85;2.13;;;;;;;12.38;100.00;102792.31;5478807;26;20038;-69
2024/04/11 06:39:13;;;;;;;8.48;2.95;;;;;;;12.38;100.00;102791.47;5504550;26;19998;-68
2024/04/11 06:42:10;;;;;;;10.00;2.80;;;;;;;12.40;100.00;102789.34;5451674;26;19998;-69
2024/04/11 06:44:58;;;;;;;8.75;2.78;;;;;;;12.36;100.00;102795.28;5494410;26;20002;-69
2024/04/11 06:47:47;;;;;;;8.93;2.50;;;;;;;12.38;100.00;102791.47;5497960;26;19998;-69
2024/04/11 06:50:38;;;;;;;7.63;2.53;;;;;;;12.41;100.00;102791.84;5460299;26;20014;-69
2024/04/11 06:53:30;;;;;;;10.27;2.85;;;;;;;12.40;100.00;102792.09;5515131;25;20001;-69
2024/04/11 06:56:22;;;;;;;10.00;2.70;;;;;;;12.40;100.00;102792.09;5510573;26;20429;-68
2024/04/11 06:59:17;;;;;;;8.50;2.55;;;;;;;12.39;100.00;102790.41;5523884;25;20013;-69
2024/04/11 07:02:07;;;;;;;7.47;2.47;;;;;;;12.39;100.00;102779.47;5499134;26;20505;-69
2024/04/11 07:04:56;;;;;;;9.00;3.20;;;;;;;12.36;100.00;102778.88;5407898;26;20011;-69
2024/04/11 07:07:45;;;;;;;12.95;4.07;;;;;;;12.35;100.00;102770.91;5473524;26;20044;-69
2024/04/11 07:10:36;;;;;;;12.57;4.03;;;;;;;12.37;100.00;102768.78;5496837;26;20365;-70
2024/04/11 07:13:27;;;;;;;10.05;3.00;;;;;;;12.40;100.00;102772.94;5494314;26;20544;-69
2024/04/11 07:16:20;;;;;;;10.00;3.00;;;;;;;12.39;100.00;102776.72;5496402;26;20006;-70
2024/04/11 07:19:08;;;;;;;12.68;3.22;;;;;;;12.40;100.00;102779.25;5519945;26;20061;-70
2024/04/11 07:21:57;;;;;;;9.63;3.17;;;;;;;12.40;100.00;102778.41;5495965;26;20002;-67
2024/04/11 07:24:45;;;;;;;8.95;3.30;;;;;;;12.41;100.00;102796.47;5457143;26;20471;-73
2024/04/11 07:27:35;;;;;;;9.75;3.03;;;;;;;12.40;100.00;102794.81;5498792;26;19997;-72
2024/04/11 07:30:24;;;;;;;18.40;3.40;;;;;;;12.40;100.00;102805.75;5519107;26;20408;-72
2024/04/11 07:33:12;;;;;;;10.25;3.25;;;;;;;12.39;100.00;102812.25;5520012;26;19997;-72
2024/04/11 07:36:01;;;;;;;10.57;2.92;;;;;;;12.37;100.00;102812.50;5516412;26;20001;-72
2024/04/11 07:38:52;;;;;;;10.70;4.47;;;;;;;12.37;100.00;102817.97;5522238;26;20077;-71
2024/04/11 07:41:44;;;;;;;11.90;3.90;;;;;;;12.44;100.00;102823.38;5498237;26;20050;-72
2024/04/11 07:44:35;;;;;;;12.82;3.28;;;;;;;12.54;100.00;102831.84;5468801;26;20073;-70
2024/04/11 07:47:29;;;;;;;10.98;2.88;;;;;;;12.52;100.00;102832.06;5456942;26;20010;-72
2024/04/11 07:50:38;;;;;;;9.30;2.90;;;;;;;12.49;100.00;102837.19;5438670;26;20916;-71
2024/04/11 07:53:27;;;;;;;8.80;2.97;;;;;;;12.45;100.00;102841.44;5434034;26;20710;-71
2024/04/11 07:56:20;;;;;;;11.40;2.92;;;;;;;12.43;100.00;102846.28;5501691;25;20001;-72
2024/04/11 07:59:11;;;;;;;12.40;3.40;;;;;;;12.45;100.00;102834.06;5496190;26;20005;-72
2024/04/11 08:01:59;;;;;;;10.50;3.20;;;;;;;12.46;100.00;102837.63;5525281;25;20010;-71
2024/04/11 08:04:48;;;;;;;10.65;3.00;;;;;;;12.44;100.00;102856.19;5497258;26;20045;-72
2024/04/11 08:07:36;;;;;;;11.70;3.30;;;;;;;12.42;100.00;102861.03;5523188;25;20408;-71
2024/04/11 08:10:27;;;;;;;11.48;3.22;;;;;;;12.42;100.00;102869.25;5555135;25;20015;-71
2024/04/11 08:13:18;;;;;;;10.10;3.55;;;;;;;12.43;100.00;102866.25;5518542;26;20456;-72
2024/04/11 08:16:09;;;;;;;10.88;3.15;;;;;;;12.47;100.00;102878.41;5496373;26;20013;-72
2024/04/11 08:19:00;;;;;;;8.20;3.15;;;;;;;12.52;100.00;102880.44;5488956;26;20015;-73
2024/04/11 08:21:48;;;;;;;8.00;3.00;;;;;;;12.50;100.00;102885.31;5520733;26;19997;-73
2024/04/11 08:24:36;;;;;;;7.80;2.80;;;;;;;12.47;100.00;102883.03;5499254;26;20021;-73
2024/04/11 08:27:24;;;;;;;9.63;3.03;;;;;;;12.49;100.00;102881.75;5500514;25;20001;-73
2024/04/11 08:30:12;;;;;;;8.80;3.45;;;;;;;12.52;100.00;102894.13;5522320;25;19997;-72
2024/04/11 08:33:01;;;;;;;10.00;3.08;;;;;;;12.52;100.00;102903.16;5499968;26;20125;-71
2024/04/11 08:35:52;;;;;;;8.63;2.80;;;;;;;12.53;100.00;102904.00;5519426;26;20475;-69
2024/04/11 08:38:41;;;;;;;14.15;3.53;;;;;;;12.52;100.00;102905.88;5521103;25;20006;-69
2024/04/11 08:41:29;;;;;;;9.52;3.13;;;;;;;12.53;100.00;102909.44;5501526;26;20004;-68
2024/04/11 08:44:20;;;;;;;12.02;3.45;;;;;;;12.56;100.00;102903.53;5518249;26;20037;-68
2024/04/11 08:47:10;;;;;;;10.93;3.40;;;;;;;12.61;100.00;102911.88;5482970;26;20010;-70
2024/04/11 08:49:58;;;;;;;9.57;2.85;;;;;;;12.57;100.00;102913.41;5516634;25;20012;-70
2024/04/11 08:52:47;;;;;;;9.75;3.10;;;;;;;12.63;100.00;102911.63;5496917;26;20029;-69
2024/04/11 08:55:35;;;;;;;9.85;3.38;;;;;;;12.66;100.00;102903.81;5493552;26;20037;-71
2024/04/11 08:58:23;;;;;;;8.00;3.00;;;;;;;12.68;100.00;102909.06;5492859;25;20013;-69
2024/04/11 09:01:18;;;;;;;10.07;3.30;;;;;;;12.66;100.00;102913.94;5525436;25;19996;-69
2024/04/11 09:04:08;;;;;;;9.30;2.92;;;;;;;12.70;100.00;102921.44;5525874;25;20367;-69
2024/04/11 09:06:58;;;;;;;8.13;3.17;;;;;;;12.76;100.00;102919.69;5459524;26;20018;-69
2024/04/11 09:09:51;;;;;;;8.73;3.13;;;;;;;12.76;100.00;102916.94;5508076;26;20433;-70
2024/04/11 09:12:42;;;;;;;6.57;2.60;;;;;;;12.76;100.00;102920.50;5496752;25;20325;-70
2024/04/11 09:15:32;;;;;;;7.35;2.47;;;;;;;12.81;100.00;102919.81;5479890;26;20001;-71
2024/04/11 09:18:24;;;;;;;9.45;3.10;;;;;;;12.90;100.00;102920.34;5515662;25;20135;-70
2024/04/11 09:21:17;;;;;;;9.60;2.70;;;;;;;12.95;100.00;102932.25;5478893;25;20411;-71
2024/04/11 09:24:13;;;;;;;7.93;3.22;;;;;;;12.97;100.00;102926.56;5399278;26;20004;-70
2024/04/11 09:27:04;;;;;;;9.63;3.67;;;;;;;13.00;100.00;102931.56;5537462;25;20001;-70
2024/04/11 09:29:52;;;;;;;11.32;3.50;;;;;;;13.00;100.00;102921.44;5470629;26;20013;-69
2024/04/11 09:32:44;;;;;;;8.90;3.40;;;;;;;13.13;100.00;102930.53;5495199;26;20364;-70
2024/04/11 09:35:40;;;;;;;12.50;3.20;;;;;;;12.93;100.00;102934.38;5468907;26;20069;-70
2024/04/11 09:38:30;;;;;;;10.75;3.28;;;;;;;12.85;100.00;102934.72;5520219;26;19997;-69
2024/04/11 09:41:18;;;;;;;10.68;3.47;;;;;;;12.80;100.00;102948.25;5492157;26;20046;-69
2024/04/11 09:44:17;;;;;;;10.45;3.20;;;;;;;12.81;100.00;102943.63;5499285;26;20037;-69
2024/04/11 09:47:09;;;;;;;11.88;3.60;;;;;;;12.87;100.00;102945.41;5446935;26;20073;-68
2024/04/11 09:50:04;;;;;;;8.38;2.60;;;;;;;12.90;100.00;102958.66;5493391;26;20353;-68
2024/04/11 09:52:59;;;;;;;8.18;2.78;;;;;;;12.95;100.00;102956.06;5488722;25;20472;-70
2024/04/11 09:55:47;;;;;;;10.25;3.28;;;;;;;12.96;100.00;102965.91;5453333;25;20005;-70
2024/04/11 09:58:38;;;;;;;9.93;3.75;;;;;;;12.94;100.00;102957.97;5470917;25;20013;-69
2024/04/11 10:01:37;;;;;;;7.68;3.08;;;;;;;12.96;100.00;102963.19;5515325;26;20069;-69
2024/04/11 10:04:35;;;;;;;9.75;3.70;;;;;;;12.97;100.00;102964.88;5496968;26;20046;-69
2024/04/11 10:07:33;;;;;;;11.77;3.40;;;;;;;12.98;100.00;102966.53;5445347;26;20002;-70
2024/04/11 10:10:25;;;;;;;13.75;3.70;;;;;;;12.98;100.00;102961.06;5466294;26;20023;-70
2024/04/11 10:13:14;;;;;;;8.73;3.58;;;;;;;13.00;100.00;102970.69;5456252;26;20005;-69
2024/04/11 10:16:22;;;;;;;10.32;4.45;;;;;;;13.13;100.00;102966.09;5518129;26;20005;-70
2024/04/11 10:19:14;;;;;;;9.63;3.95;;;;;;;13.13;100.00;102980.66;5481197;26;20540;-70
2024/04/11 10:22:07;;;;;;;10.52;3.70;;;;;;;13.10;100.00;102981.09;5472015;26;20013;-70
2024/04/11 10:25:07;;;;;;;10.15;3.78;;;;;;;13.07;100.00;102981.56;5477884;26;20001;-69
2024/04/11 10:27:56;;;;;;;12.27;4.25;;;;;;;13.08;100.00;102977.75;5502243;26;20009;-70
2024/04/11 10:30:50;;;;;;;8.35;3.55;;;;;;;13.09;100.00;102984.06;5495954;26;20341;-69
2024/04/11 10:33:53;;;;;;;9.90;3.50;;;;;;;13.08;100.00;102991.44;5498541;26;20008;-75
2024/04/11 10:36:42;;;;;;;10.70;3.97;;;;;;;13.16;100.00;102985.66;5453405;26;20321;-72
2024/04/11 10:39:38;;;;;;;10.43;4.13;;;;;;;13.21;100.00;102996.72;5498899;26;20001;-72
2024/04/11 10:42:36;;;;;;;12.65;3.63;;;;;;;13.32;100.00;103000.59;5469824;26;20478;-72
2024/04/11 10:45:26;;;;;;;12.30;4.05;;;;;;;13.35;100.00;103010.28;5517575;26;20540;-73
2024/04/11 10:48:15;;;;;;;12.52;4.28;;;;;;;13.37;100.00;103002.63;5497455;26;20013;-72
2024/04/11 10:51:04;;;;;;;9.30;3.97;;;;;;;13.35;100.00;103008.38;5521869;26;20501;-72
2024/04/11 10:54:10;;;;;;;12.32;3.95;;;;;;;13.32;100.00;103011.53;5412830;26;20083;-73
2024/04/11 10:56:59;;;;;;;12.35;4.18;;;;;;;13.36;100.00;103011.94;5440202;26;20002;-73
2024/04/11 10:59:53;;;;;;;10.40;4.18;;;;;;;13.32;100.00;103013.47;5442326;26;20002;-72
2024/04/11 11:02:44;;;;;;;11.60;4.25;;;;;;;13.30;100.00;103012.84;5545688;25;20135;-73
2024/04/11 11:05:33;;;;;;;11.48;4.25;;;;;;;13.28;100.00;103015.84;5560906;25;20005;-73
2024/04/11 11:08:22;;;;;;;10.68;4.18;;;;;;;13.31;100.00;103014.53;5534340;25;20012;-73
2024/04/11 11:11:14;;;;;;;9.35;4.78;;;;;;;13.30;100.00;103007.38;5557910;25;20008;-73
2024/04/11 11:14:03;;;;;;;12.40;5.18;;;;;;;13.29;100.00;103006.53;5512179;25;19997;-74
2024/04/11 11:16:52;;;;;;;11.70;4.45;;;;;;;13.31;100.00;103015.38;5508909;25;20012;-74
2024/04/11 11:19:40;;;;;;;8.27;4.60;;;;;;;13.35;100.00;103013.84;5509711;25;20301;-74
2024/04/11 11:22:36;;;;;;;13.40;4.57;;;;;;;13.34;100.00;103014.06;5561197;25;20012;-74
2024/04/11 11:25:26;;;;;;;10.02;4.82;;;;;;;13.38;100.00;103020.75;5503801;25;19998;-74
2024/04/11 11:28:17;;;;;;;9.32;5.07;;;;;;;13.39;100.00;103014.19;5534856;25;20001;-74
2024/04/11 11:31:14;;;;;;;10.65;5.15;;;;;;;13.41;100.00;103017.53;5533113;25;20009;-74
2024/04/11 11:34:09;;;;;;;12.23;5.15;;;;;;;13.42;100.00;103025.53;5538944;25;20020;-73
2024/04/11 11:37:01;;;;;;;8.80;4.30;;;;;;;13.47;100.00;103029.47;5560673;25;19997;-74
2024/04/11 11:39:50;;;;;;;10.52;4.85;;;;;;;13.51;100.00;103025.19;5559350;25;20012;-73
2024/04/11 11:42:43;;;;;;;11.85;5.53;;;;;;;13.49;100.00;103027.31;5534322;25;20008;-73
2024/04/11 11:45:44;;;;;;;10.23;5.10;;;;;;;13.47;100.00;103019.38;5540394;25;20367;-74
2024/04/11 11:48:33;;;;;;;11.48;5.25;;;;;;;13.50;100.00;103015.31;5558341;25;20045;-74
2024/04/11 11:51:28;;;;;;;11.30;5.82;;;;;;;13.50;100.00;103024.38;5532841;25;20096;-72
2024/04/11 11:54:16;;;;;;;12.15;5.38;;;;;;;13.50;100.00;103029.84;5534828;25;20467;-72
2024/04/11 11:57:22;;;;;;;13.85;6.20;;;;;;;13.52;100.00;103026.88;5529058;26;20069;-72
2024/04/11 12:00:25;;;;;;;8.55;4.90;;;;;;;13.54;100.00;103020.09;5531328;25;20041;-72
2024/04/11 12:03:20;;;;;;;10.38;5.15;;;;;;;13.52;100.00;103016.75;5523028;25;20008;-72
2024/04/11 12:06:21;;;;;;;12.35;6.03;;;;;;;13.53;100.00;103018.41;5554526;25;20011;-72
2024/04/11 12:09:12;;;;;;;9.48;5.90;;;;;;;13.53;100.00;103018.41;5540804;25;20447;-71
2024/04/11 12:12:20;;;;;;;9.75;4.60;;;;;;;13.57;100.00;103014.13;5566404;25;20008;-69
2024/04/11 12:15:08;;;;;;;11.30;6.35;;;;;;;13.58;100.00;103015.81;5471585;25;20007;-71
2024/04/11 12:17:57;;;;;;;12.27;6.30;;;;;;;13.58;100.00;102999.38;5529127;25;20016;-70
2024/04/11 12:20:46;;;;;;;11.05;6.10;;;;;;;13.57;100.00;103002.34;5534181;25;20053;-70
2024/04/11 12:23:34;;;;;;;13.32;6.40;;;;;;;13.59;100.00;103011.19;5497027;26;20437;-71
2024/04/11 12:26:23;;;;;;;8.25;5.38;;;;;;;13.62;100.00;103016.19;5561458;25;20049;-70
2024/04/11 12:29:12;;;;;;;9.00;5.70;;;;;;;13.63;100.00;103024.16;5510817;25;20433;-70
2024/04/11 12:32:07;;;;;;;11.60;6.47;;;;;;;13.67;100.00;103020.97;5536589;25;20019;-69
2024/04/11 12:34:55;;;;;;;10.93;5.18;;;;;;;13.70;100.00;103020.47;5476517;26;20029;-71
2024/04/11 12:37:46;;;;;;;11.27;6.10;;;;;;;13.70;100.00;103028.69;5546318;25;19996;-71
2024/04/11 12:40:34;;;;;;;10.05;5.20;;;;;;;13.74;100.00;103040.88;5561950;25;20036;-71
2024/04/11 12:43:22;;;;;;;10.77;5.70;;;;;;;13.75;100.00;103034.31;5559582;25;20171;-71
2024/04/11 12:46:10;;;;;;;9.45;5.93;;;;;;;13.76;100.00;103027.78;5535832;25;19997;-71
2024/04/11 12:48:58;;;;;;;10.02;6.13;;;;;;;13.77;100.00;103023.94;5529385;25;20003;-71
2024/04/11 12:51:47;;;;;;;10.70;5.85;;;;;;;13.82;100.00;103032.28;5490767;25;20000;-71
2024/04/11 12:54:35;;;;;;;14.43;6.40;;;;;;;13.82;100.00;103032.28;5560405;25;20016;-71
2024/04/11 12:57:28;;;;;;;12.98;6.65;;;;;;;13.82;100.00;103035.03;5559932;25;20074;-71
2024/04/11 13:00:35;;;;;;;13.10;6.85;;;;;;;13.81;100.00;103034.22;5521887;26;20001;-70
2024/04/11 13:03:52;;;;;;;10.95;7.32;;;;;;;13.82;100.00;103032.28;5477588;26;20037;-71